createdAt,value
2022-11-16T00:01:37.739Z,7.50
2022-11-16T00:04:19.316Z,7.50
2022-11-16T00:06:49.087Z,7.40
2022-11-16T00:09:23.645Z,7.40
2022-11-16T00:11:53.193Z,7.30
2022-11-16T00:14:22.034Z,7.30
2022-11-16T00:16:49.526Z,7.30
2022-11-16T00:19:17.193Z,7.20
2022-11-16T00:21:44.539Z,7.30
2022-11-16T00:24:14.285Z,7.20
2022-11-16T00:26:42.105Z,7.20
2022-11-16T00:29:22.955Z,7.20
2022-11-16T00:31:50.896Z,7.20
2022-11-16T00:34:18.609Z,7.20
2022-11-16T00:36:46.481Z,7.10
2022-11-16T00:39:15.551Z,7.20
2022-11-16T00:41:43.805Z,7.20
2022-11-16T00:44:11.585Z,7.20
2022-11-16T00:46:39.689Z,7.20
2022-11-16T00:49:07.527Z,7.30
2022-11-16T00:51:36.084Z,7.30
2022-11-16T00:54:05.444Z,7.30
2022-11-16T00:56:36.600Z,7.30
2022-11-16T00:59:04.622Z,7.30
2022-11-16T01:01:32.810Z,7.30
2022-11-16T01:04:00.091Z,7.30
2022-11-16T01:06:27.330Z,7.30
2022-11-16T01:08:54.529Z,7.20
2022-11-16T01:11:43.804Z,7.20
2022-11-16T01:14:11.151Z,7.20
2022-11-16T01:16:38.253Z,7.20
2022-11-16T01:19:05.724Z,7.20
2022-11-16T01:21:33.105Z,7.30
2022-11-16T01:24:00.773Z,7.30
2022-11-16T01:26:28.023Z,7.30
2022-11-16T01:28:55.203Z,7.30
2022-11-16T01:32:25.276Z,7.30
2022-11-16T01:34:53.385Z,7.20
2022-11-16T01:37:26.415Z,7.20
2022-11-16T01:39:54.172Z,7.20
2022-11-16T01:42:24.853Z,7.20
2022-11-16T01:45:00.620Z,7.10
2022-11-16T01:47:28.737Z,7.00
2022-11-16T01:50:07.850Z,7.00
2022-11-16T01:52:42.631Z,7.00
2022-11-16T01:55:11.311Z,6.90
2022-11-16T01:57:49.265Z,6.90
2022-11-16T02:00:17.745Z,6.90
2022-11-16T02:02:55.404Z,7.00
2022-11-16T02:05:54.203Z,7.00
2022-11-16T02:08:51.632Z,7.00
2022-11-16T02:11:29.191Z,7.00
2022-11-16T02:14:18.920Z,7.10
2022-11-16T02:17:04.005Z,7.00
2022-11-16T02:20:16.066Z,7.00
2022-11-16T02:23:02.928Z,7.00
2022-11-16T02:25:59.715Z,7.00
2022-11-16T02:28:31.819Z,7.00
2022-11-16T02:31:03.960Z,7.00
2022-11-16T02:33:37.270Z,7.00
2022-11-16T02:36:09.421Z,7.00
2022-11-16T02:38:40.538Z,7.00
2022-11-16T02:41:12.102Z,7.00
2022-11-16T02:43:43.490Z,7.00
2022-11-16T02:46:17.736Z,7.00
2022-11-16T02:48:50.050Z,7.00
2022-11-16T02:51:19.555Z,7.00
2022-11-16T02:54:05.519Z,7.00
2022-11-16T02:56:43.421Z,7.00
2022-11-16T02:59:17.381Z,6.90
2022-11-16T03:02:00.746Z,6.90
2022-11-16T03:04:41.579Z,6.90
2022-11-16T03:07:12.992Z,6.90
2022-11-16T03:09:41.859Z,6.90
2022-11-16T03:12:15.103Z,6.90
2022-11-16T03:14:48.812Z,6.90
2022-11-16T03:17:22.711Z,6.80
2022-11-16T03:19:56.196Z,6.90
2022-11-16T03:22:30.668Z,6.80
2022-11-16T03:24:57.743Z,6.80
2022-11-16T03:27:35.388Z,6.80
2022-11-16T03:30:03.727Z,6.90
2022-11-16T03:32:54.135Z,6.90
2022-11-16T03:35:27.766Z,6.90
2022-11-16T03:37:58.755Z,6.90
2022-11-16T03:40:30.671Z,6.90
2022-11-16T03:43:01.056Z,6.90
2022-11-16T03:45:30.178Z,6.90
2022-11-16T03:47:57.370Z,6.90
2022-11-16T03:50:25.397Z,6.80
2022-11-16T03:52:53.498Z,6.80
2022-11-16T03:55:20.755Z,6.80
2022-11-16T03:57:47.847Z,6.80
2022-11-16T04:00:15.676Z,6.80
2022-11-16T04:02:43.805Z,6.80
2022-11-16T04:05:37.269Z,6.70
2022-11-16T04:08:24.868Z,6.70
2022-11-16T04:11:12.560Z,6.80
2022-11-16T04:13:59.607Z,6.80
2022-11-16T04:16:48.123Z,6.80
2022-11-16T04:19:35.258Z,6.80
2022-11-16T04:22:30.014Z,6.80
2022-11-16T04:25:04.946Z,6.80
2022-11-16T04:27:52.667Z,6.80
2022-11-16T04:30:20.218Z,6.80
2022-11-16T04:33:08.269Z,6.80
2022-11-16T04:35:55.661Z,6.70
2022-11-16T04:38:23.631Z,6.70
2022-11-16T04:40:50.704Z,6.70
2022-11-16T04:43:17.976Z,6.70
2022-11-16T04:46:05.890Z,6.70
2022-11-16T04:48:38.965Z,6.80
2022-11-16T04:51:06.852Z,6.70
2022-11-16T04:53:34.712Z,6.80
2022-11-16T04:56:11.416Z,6.80
2022-11-16T04:58:38.583Z,6.80
2022-11-16T05:01:05.828Z,6.80
2022-11-16T05:03:33.536Z,6.70
2022-11-16T05:06:01.576Z,6.70
2022-11-16T05:08:29.412Z,6.70
2022-11-16T05:10:57.498Z,6.70
2022-11-16T05:13:24.544Z,6.70
2022-11-16T05:15:53.129Z,6.70
2022-11-16T05:18:20.167Z,6.70
2022-11-16T05:21:04.316Z,6.70
2022-11-16T05:23:56.740Z,6.70
2022-11-16T05:26:28.579Z,6.60
2022-11-16T05:28:55.874Z,6.50
2022-11-16T05:31:23.067Z,6.50
2022-11-16T05:33:50.324Z,6.50
2022-11-16T05:36:18.986Z,6.50
2022-11-16T05:38:46.272Z,6.50
2022-11-16T05:41:14.540Z,6.40
2022-11-16T05:43:43.038Z,6.50
2022-11-16T05:46:16.354Z,6.50
2022-11-16T05:48:43.855Z,6.50
2022-11-16T05:51:10.947Z,6.60
2022-11-16T05:53:38.787Z,6.60
2022-11-16T05:56:07.513Z,6.60
2022-11-16T05:58:38.600Z,6.50
2022-11-16T06:01:06.242Z,6.60
2022-11-16T06:03:35.674Z,6.50
2022-11-16T06:06:04.745Z,6.60
2022-11-16T06:08:32.663Z,6.50
2022-11-16T06:11:04.665Z,6.50
2022-11-16T06:13:33.321Z,6.50
2022-11-16T06:16:02.416Z,6.50
2022-11-16T06:18:32.083Z,6.50
2022-11-16T06:20:59.413Z,6.50
2022-11-16T06:23:26.603Z,6.50
2022-11-16T06:25:55.375Z,6.50
2022-11-16T06:28:24.878Z,6.50
2022-11-16T06:30:51.961Z,6.50
2022-11-16T06:33:19.923Z,6.50
2022-11-16T06:35:47.281Z,6.40
2022-11-16T06:38:19.187Z,6.50
2022-11-16T06:40:52.946Z,6.50
2022-11-16T06:43:21.883Z,6.50
2022-11-16T06:45:51.337Z,6.60
2022-11-16T06:48:19.394Z,6.70
2022-11-16T06:50:50.624Z,6.70
2022-11-16T06:53:21.628Z,6.70
2022-11-16T06:55:51.977Z,6.60
2022-11-16T06:58:19.976Z,6.60
2022-11-16T07:00:47.048Z,6.70
2022-11-16T07:03:15.668Z,6.60
2022-11-16T07:05:44.018Z,6.70
2022-11-16T07:08:14.607Z,6.80
2022-11-16T07:10:41.729Z,6.80
2022-11-16T07:13:08.824Z,6.90
2022-11-16T07:15:38.435Z,7.00
2022-11-16T07:18:07.145Z,7.00
2022-11-16T07:20:38.110Z,7.00
2022-11-16T07:23:07.146Z,7.00
2022-11-16T07:25:37.901Z,7.10
2022-11-16T07:28:06.375Z,7.10
2022-11-16T07:30:34.547Z,7.10
2022-11-16T07:33:21.443Z,7.10
2022-11-16T07:36:11.984Z,7.10
2022-11-16T07:38:39.541Z,7.20
2022-11-16T07:41:09.886Z,7.10
2022-11-16T07:43:40.657Z,7.20
2022-11-16T07:49:05.878Z,7.30
2022-11-16T07:51:49.241Z,7.30
2022-11-16T07:54:30.892Z,7.30
2022-11-16T07:56:58.519Z,7.30
2022-11-16T07:59:25.720Z,7.30
2022-11-16T08:01:53.079Z,7.40
2022-11-16T08:04:20.259Z,7.50
2022-11-16T08:06:51.786Z,7.60
2022-11-16T08:09:20.457Z,7.70
2022-11-16T08:11:51.058Z,7.70
2022-11-16T08:14:19.370Z,7.70
2022-11-16T08:16:48.856Z,7.80
2022-11-16T08:19:17.465Z,7.80
2022-11-16T08:21:45.859Z,7.80
2022-11-16T08:24:15.329Z,7.80
2022-11-16T08:26:44.429Z,7.80
2022-11-16T08:29:15.227Z,7.90
2022-11-16T08:31:47.978Z,7.90
2022-11-16T08:34:18.658Z,7.90
2022-11-16T08:36:49.693Z,8.00
2022-11-16T08:39:18.733Z,7.90
2022-11-16T08:41:45.851Z,7.90
2022-11-16T08:44:15.454Z,7.90
2022-11-16T08:46:46.653Z,7.80
2022-11-16T08:49:28.943Z,7.80
2022-11-16T08:51:56.714Z,7.80
2022-11-16T08:54:23.836Z,7.80
2022-11-16T08:56:50.820Z,7.80
2022-11-16T08:59:19.409Z,7.80
2022-11-16T09:01:50.462Z,7.80
2022-11-16T09:04:18.771Z,7.90
2022-11-16T09:06:46.433Z,7.90
2022-11-16T09:09:13.561Z,7.90
2022-11-16T09:11:40.612Z,8.00
2022-11-16T09:14:07.694Z,8.10
2022-11-16T09:16:34.858Z,8.10
2022-11-16T09:19:02.202Z,8.10
2022-11-16T09:21:30.406Z,8.10
2022-11-16T09:23:58.293Z,8.10
2022-11-16T09:26:26.383Z,8.20
2022-11-16T09:28:57.010Z,8.30
2022-11-16T09:31:27.562Z,8.30
2022-11-16T09:33:58.527Z,8.50
2022-11-16T09:36:27.734Z,8.50
2022-11-16T09:39:25.734Z,8.60
2022-11-16T09:42:18.096Z,8.70
2022-11-16T09:44:59.568Z,8.70
2022-11-16T09:47:35.866Z,8.70
2022-11-16T09:50:06.050Z,8.70
2022-11-16T09:52:34.221Z,8.80
2022-11-16T09:55:17.446Z,8.70
2022-11-16T09:57:45.233Z,8.70
2022-11-16T10:00:18.148Z,8.80
2022-11-16T10:02:50.413Z,8.80
2022-11-16T10:05:24.559Z,8.80
2022-11-16T10:07:59.318Z,8.90
2022-11-16T10:10:35.024Z,8.90
2022-11-16T10:13:29.648Z,9.00
2022-11-16T10:16:04.696Z,9.00
2022-11-16T10:18:48.853Z,9.10
2022-11-16T10:21:23.027Z,9.20
2022-11-16T10:24:03.403Z,9.40
2022-11-16T10:26:40.641Z,9.40
2022-11-16T10:29:15.459Z,9.50
2022-11-16T10:31:46.933Z,9.50
2022-11-16T10:34:22.790Z,9.40
2022-11-16T10:36:49.935Z,9.30
2022-11-16T10:39:20.696Z,9.30
2022-11-16T10:41:50.981Z,9.40
2022-11-16T10:44:39.339Z,9.30
2022-11-16T10:47:12.553Z,9.20
2022-11-16T10:50:00.760Z,9.20
2022-11-16T10:52:28.619Z,9.30
2022-11-16T10:54:55.728Z,9.40
2022-11-16T10:57:24.996Z,9.40
2022-11-16T10:59:55.673Z,9.50
2022-11-16T11:02:31.392Z,9.50
2022-11-16T11:05:02.882Z,9.60
2022-11-16T11:07:32.629Z,9.50
2022-11-16T11:10:00.003Z,9.50
2022-11-16T11:12:43.482Z,9.50
2022-11-16T11:15:11.619Z,9.50
2022-11-16T11:17:41.092Z,9.60
2022-11-16T11:20:21.943Z,9.60
2022-11-16T11:22:53.529Z,9.70
2022-11-16T11:25:20.663Z,9.60
2022-11-16T11:27:47.983Z,9.50
2022-11-16T11:30:22.963Z,9.50
2022-11-16T11:32:52.969Z,9.50
2022-11-16T11:35:26.367Z,9.40
2022-11-16T11:37:56.734Z,9.50
2022-11-16T11:40:27.749Z,9.50
2022-11-16T11:42:58.289Z,9.60
2022-11-16T11:45:33.243Z,9.70
2022-11-16T11:48:17.933Z,9.80
2022-11-16T11:50:51.560Z,9.80
2022-11-16T11:53:27.784Z,9.90
2022-11-16T11:55:58.636Z,9.90
2022-11-16T11:58:32.479Z,9.90
2022-11-16T12:01:25.512Z,9.90
2022-11-16T12:04:20.213Z,9.90
2022-11-16T12:06:58.990Z,10.00
2022-11-16T12:09:57.860Z,10.00
2022-11-16T12:12:33.462Z,10.00
2022-11-16T12:15:21.463Z,10.00
2022-11-16T12:17:53.049Z,10.10
2022-11-16T12:20:32.635Z,10.10
2022-11-16T12:23:11.820Z,10.00
2022-11-16T12:26:06.126Z,10.00
2022-11-16T12:28:34.221Z,9.90
2022-11-16T12:31:15.415Z,9.80
2022-11-16T12:33:53.966Z,9.70
2022-11-16T12:36:33.096Z,9.70
2022-11-16T12:39:25.386Z,9.70
2022-11-16T12:41:57.028Z,9.70
2022-11-16T12:44:32.079Z,9.70
2022-11-16T12:47:18.897Z,9.70
2022-11-16T12:49:55.820Z,9.70
2022-11-16T12:52:37.917Z,9.70
2022-11-16T12:55:26.319Z,9.80
2022-11-16T12:58:33.940Z,9.80
2022-11-16T13:01:08.511Z,9.70
2022-11-16T13:03:38.319Z,9.70
2022-11-16T13:06:12.365Z,9.70
2022-11-16T13:08:55.421Z,9.70
2022-11-16T13:11:25.649Z,9.70
2022-11-16T13:13:59.261Z,9.70
2022-11-16T13:16:27.640Z,9.70
2022-11-16T13:18:55.965Z,9.80
2022-11-16T13:21:39.894Z,9.80
2022-11-16T13:24:33.651Z,9.70
2022-11-16T13:27:36.569Z,9.70
2022-11-16T13:30:06.207Z,9.70
2022-11-16T13:32:35.013Z,9.70
2022-11-16T13:35:05.355Z,9.70
2022-11-16T13:37:39.957Z,9.60
2022-11-16T13:40:06.955Z,9.70
2022-11-16T13:42:53.897Z,9.60
2022-11-16T13:45:23.035Z,9.70
2022-11-16T13:47:52.536Z,9.70
2022-11-16T13:50:22.442Z,9.70
2022-11-16T13:55:46.510Z,9.70
2022-11-16T13:58:21.742Z,9.70
2022-11-16T14:01:10.842Z,9.70
2022-11-16T14:03:40.346Z,9.70
2022-11-16T14:06:28.389Z,9.70
2022-11-16T14:08:56.861Z,9.70
2022-11-16T14:11:39.929Z,9.60
2022-11-16T14:14:12.904Z,9.60
2022-11-16T14:16:45.738Z,9.60
2022-11-16T14:19:52.060Z,9.70
2022-11-16T14:22:44.996Z,9.70
2022-11-16T14:25:28.577Z,9.70
2022-11-16T14:28:14.766Z,9.90
2022-11-16T14:31:06.185Z,9.80
2022-11-16T14:33:36.847Z,9.80
2022-11-16T14:36:07.788Z,9.80
2022-11-16T14:38:40.171Z,9.80
2022-11-16T14:41:18.163Z,9.80
2022-11-16T14:43:50.602Z,9.70
2022-11-16T14:46:27.910Z,9.70
2022-11-16T14:48:58.230Z,9.60
2022-11-16T14:51:31.184Z,9.50
2022-11-16T14:54:03.852Z,9.40
2022-11-16T14:56:30.928Z,9.40
2022-11-16T14:59:00.432Z,9.30
2022-11-16T15:01:34.220Z,9.20
2022-11-16T15:04:04.423Z,9.20
2022-11-16T15:06:41.931Z,9.10
2022-11-16T15:09:17.315Z,9.00
2022-11-16T15:12:08.089Z,9.00
2022-11-16T15:14:41.749Z,9.00
2022-11-16T15:17:09.931Z,8.90
2022-11-16T15:19:37.031Z,8.90
2022-11-16T15:22:05.380Z,8.90
2022-11-16T15:24:34.582Z,8.80
2022-11-16T15:27:11.686Z,8.80
2022-11-16T15:29:39.389Z,8.70
2022-11-16T15:32:12.525Z,8.60
2022-11-16T15:34:39.780Z,8.60
2022-11-16T15:37:11.488Z,8.60
2022-11-16T15:39:39.738Z,8.60
2022-11-16T15:42:12.859Z,8.60
2022-11-16T15:44:41.164Z,8.50
2022-11-16T15:47:13.286Z,8.50
2022-11-16T15:49:42.008Z,8.40
2022-11-16T15:52:09.101Z,8.40
2022-11-16T15:54:59.046Z,8.40
2022-11-16T15:57:26.412Z,8.30
2022-11-16T15:59:56.053Z,8.30
2022-11-16T16:02:27.753Z,8.40
2022-11-16T16:04:55.085Z,8.30
2022-11-16T16:07:39.693Z,8.30
2022-11-16T16:10:24.046Z,8.30
2022-11-16T16:12:53.093Z,8.30
2022-11-16T16:15:30.240Z,8.30
2022-11-16T16:17:59.027Z,8.30
2022-11-16T16:20:29.466Z,8.20
2022-11-16T16:23:16.413Z,8.20
2022-11-16T16:25:49.056Z,8.20
2022-11-16T16:28:17.552Z,8.20
2022-11-16T16:30:44.607Z,8.20
2022-11-16T16:33:19.406Z,8.20
2022-11-16T16:35:49.823Z,8.20
2022-11-16T16:38:17.095Z,8.20
2022-11-16T16:40:44.153Z,8.20
2022-11-16T16:43:11.141Z,8.20
2022-11-16T16:45:41.702Z,8.20
2022-11-16T16:48:09.736Z,8.20
2022-11-16T16:50:37.206Z,8.20
2022-11-16T16:53:04.840Z,8.20
2022-11-16T16:55:37.035Z,8.20
2022-11-16T16:58:06.019Z,8.20
2022-11-16T17:00:33.457Z,8.20
2022-11-16T17:03:00.588Z,8.20
2022-11-16T17:05:27.591Z,8.20
2022-11-16T17:07:56.328Z,8.20
2022-11-16T17:10:23.727Z,8.20
2022-11-16T17:12:54.016Z,8.20
2022-11-16T17:15:21.170Z,8.10
2022-11-16T17:17:48.322Z,8.10
2022-11-16T17:20:16.397Z,8.10
2022-11-16T17:22:43.742Z,8.10
2022-11-16T17:25:11.192Z,8.10
2022-11-16T17:27:38.362Z,8.20
2022-11-16T17:30:05.990Z,8.10
2022-11-16T17:32:34.242Z,8.10
2022-11-16T17:35:01.310Z,8.10
2022-11-16T17:37:29.205Z,8.10
2022-11-16T17:39:57.036Z,8.10
2022-11-16T17:42:24.947Z,8.10
2022-11-16T17:44:54.138Z,8.10
2022-11-16T17:47:22.158Z,8.10
2022-11-16T17:49:49.493Z,8.10
2022-11-16T17:52:16.752Z,8.10
2022-11-16T17:54:43.923Z,8.10
2022-11-16T17:57:11.110Z,8.10
2022-11-16T17:59:38.191Z,8.10
2022-11-16T18:02:05.477Z,8.10
2022-11-16T18:04:32.727Z,8.00
2022-11-16T18:07:01.341Z,8.00
2022-11-16T18:09:28.486Z,8.00
2022-11-16T18:11:56.157Z,8.00
2022-11-16T18:14:23.412Z,8.00
2022-11-16T18:16:50.923Z,8.00
2022-11-16T18:19:18.931Z,7.90
2022-11-16T18:21:47.087Z,7.90
2022-11-16T18:24:14.255Z,7.90
2022-11-16T18:26:42.103Z,7.80
2022-11-16T18:29:12.827Z,7.80
2022-11-16T18:31:40.806Z,7.70
2022-11-16T18:34:08.488Z,7.60
2022-11-16T18:36:35.668Z,7.60
2022-11-16T18:39:03.157Z,7.50
2022-11-16T18:41:31.056Z,7.50
2022-11-16T18:44:00.512Z,7.40
2022-11-16T18:46:30.423Z,7.40
2022-11-16T18:48:58.100Z,7.30
2022-11-16T18:51:27.468Z,7.30
2022-11-16T18:53:55.571Z,7.20
2022-11-16T18:56:23.957Z,7.20
2022-11-16T18:58:52.982Z,7.20
2022-11-16T19:01:23.859Z,7.20
2022-11-16T19:03:53.002Z,7.20
2022-11-16T19:06:21.726Z,7.30
2022-11-16T19:08:55.885Z,7.30
2022-11-16T19:11:24.935Z,7.30
2022-11-16T19:13:55.864Z,7.30
2022-11-16T19:16:24.233Z,7.30
2022-11-16T19:18:51.501Z,7.30
2022-11-16T19:21:18.765Z,7.30
2022-11-16T19:23:47.953Z,7.30
2022-11-16T19:26:16.826Z,7.20
2022-11-16T19:28:45.831Z,7.30
2022-11-16T19:31:15.945Z,7.30
2022-11-16T19:33:44.612Z,7.30
2022-11-16T19:36:17.046Z,7.30
2022-11-16T19:38:46.004Z,7.40
2022-11-16T19:41:15.016Z,7.40
2022-11-16T19:43:42.853Z,7.40
2022-11-16T19:46:12.429Z,7.40
2022-11-16T19:48:39.890Z,7.30
2022-11-16T19:51:09.809Z,7.30
2022-11-16T19:53:37.288Z,7.30
2022-11-16T19:56:05.949Z,7.30
2022-11-16T19:58:37.150Z,7.30
2022-11-16T20:01:08.023Z,7.40
2022-11-16T20:03:38.368Z,7.40
2022-11-16T20:06:09.562Z,7.40
2022-11-16T20:08:38.464Z,7.40
2022-11-16T20:11:15.201Z,7.40
2022-11-16T20:13:43.013Z,7.40
2022-11-16T20:16:12.613Z,7.40
2022-11-16T20:18:41.557Z,7.40
2022-11-16T20:21:12.523Z,7.40
2022-11-16T20:23:39.806Z,7.50
2022-11-16T20:26:09.686Z,7.40
2022-11-16T20:28:39.477Z,7.40
2022-11-16T20:31:16.806Z,7.50
2022-11-16T20:33:51.962Z,7.50
2022-11-16T20:36:20.316Z,7.40
2022-11-16T20:38:47.831Z,7.40
2022-11-16T20:41:18.019Z,7.40
2022-11-16T20:43:46.605Z,7.40
2022-11-16T20:46:16.684Z,7.40
2022-11-16T20:48:44.963Z,7.40
2022-11-16T20:51:15.061Z,7.40
2022-11-16T20:53:43.128Z,7.40
2022-11-16T20:56:11.517Z,7.40
2022-11-16T20:58:38.987Z,7.40
2022-11-16T21:01:08.481Z,7.40
2022-11-16T21:03:35.971Z,7.40
2022-11-16T21:06:03.819Z,7.50
2022-11-16T21:08:31.194Z,7.50
2022-11-16T21:10:58.647Z,7.50
2022-11-16T21:13:45.848Z,7.60
2022-11-16T21:16:16.008Z,7.50
2022-11-16T21:18:43.185Z,7.40
2022-11-16T21:21:13.574Z,7.40
2022-11-16T21:23:45.065Z,7.40
2022-11-16T21:26:14.980Z,7.40
2022-11-16T21:28:45.457Z,7.30
2022-11-16T21:31:15.376Z,7.30
2022-11-16T21:33:44.549Z,7.20
2022-11-16T21:36:14.165Z,7.30
2022-11-16T21:38:42.550Z,7.20
2022-11-16T21:41:11.585Z,7.20
2022-11-16T21:43:40.941Z,7.10
2022-11-16T21:46:11.750Z,7.20
2022-11-16T21:48:39.476Z,7.10
2022-11-16T21:51:08.679Z,7.20
2022-11-16T21:53:37.292Z,7.20
2022-11-16T21:56:06.500Z,7.30
2022-11-16T21:58:33.632Z,7.30
2022-11-16T22:01:02.391Z,7.20
2022-11-16T22:03:31.188Z,7.30
2022-11-16T22:06:20.152Z,7.30
2022-11-16T22:08:48.587Z,7.20
2022-11-16T22:11:17.212Z,7.20
2022-11-16T22:13:44.707Z,7.10
2022-11-16T22:16:15.244Z,7.10
2022-11-16T22:18:43.088Z,7.00
2022-11-16T22:21:11.513Z,7.00
2022-11-16T22:23:39.007Z,7.00
2022-11-16T22:26:08.597Z,7.00
2022-11-16T22:28:36.870Z,6.90
2022-11-16T22:31:07.394Z,6.90
2022-11-16T22:33:35.412Z,6.90
2022-11-16T22:36:03.142Z,6.80
2022-11-16T22:38:30.785Z,6.80
2022-11-16T22:40:58.090Z,6.70
2022-11-16T22:43:27.521Z,6.70
2022-11-16T22:45:59.314Z,6.60
2022-11-16T22:48:31.682Z,6.50
2022-11-16T22:51:05.237Z,6.50
2022-11-16T22:53:32.897Z,6.40
2022-11-16T22:56:07.973Z,6.30
2022-11-16T22:58:36.627Z,6.30
2022-11-16T23:01:04.843Z,6.20
2022-11-16T23:03:32.272Z,6.20
2022-11-16T23:05:59.927Z,6.10
2022-11-16T23:08:27.370Z,6.00
2022-11-16T23:11:25.520Z,6.00
2022-11-16T23:14:13.841Z,5.90
2022-11-16T23:16:42.302Z,5.90
2022-11-16T23:19:31.287Z,5.80
2022-11-16T23:22:18.817Z,5.70
2022-11-16T23:25:06.207Z,5.60
2022-11-16T23:27:53.933Z,5.60
2022-11-16T23:30:21.711Z,5.50
2022-11-16T23:32:48.774Z,5.50
2022-11-16T23:35:16.264Z,5.50
2022-11-16T23:38:02.524Z,5.60
2022-11-16T23:40:32.382Z,5.70
2022-11-16T23:43:19.678Z,5.70
2022-11-16T23:45:47.153Z,5.70
2022-11-16T23:48:16.593Z,5.80
2022-11-16T23:50:44.953Z,5.80
2022-11-16T23:53:12.777Z,5.90
2022-11-16T23:55:40.393Z,6.00
2022-11-16T23:58:13.418Z,6.00
